METAR AND TAF INFORMATION
METAR FOR LSGG
ADDS - METARS form results

(2006 UTC 23 February 2020)
Data provider http://aviationweather.gov/metar/data/
 
METAR text: LSGG 231950Z 24005KT CAVOK 13/01 Q1029 NOSIG
Conditions at: LSGG (GENEVA/COINTRIN , CH) observed 1950 UTC 23 February 2020
Temperature: 13.0°C (55°F)
Dewpoint: 1.0°C (34°F) [RH = 44%]
Pressure (altimeter): 30.38 inches Hg (1029.0 mb)
Winds: from the WSW (240 degrees) at 6 MPH (5 knots; 2.6 m/s)
Visibility: 6 or more miles (10+ km)
Ceiling: ceiling and visibility are OK
Clouds: unknown
Weather: no significant weather observed at this time

METAR text: LSGG 231920Z 22004KT CAVOK 13/01 Q1029 NOSIG
Conditions at: LSGG (GENEVA/COINTRIN , CH) observed 1920 UTC 23 February 2020
Temperature: 13.0°C (55°F)
Dewpoint: 1.0°C (34°F) [RH = 44%]
Pressure (altimeter): 30.38 inches Hg (1029.0 mb)
Winds: from the SW (220 degrees) at 5 MPH (4 knots; 2.1 m/s)
Visibility: 6 or more miles (10+ km)
Ceiling: ceiling and visibility are OK
Clouds: unknown
Weather: no significant weather observed at this time

Forecast for: LSGG (GENEVA/COINTRIN , CH)
Text: TAF LSGG 231725Z 2318/2424 22005KT CAVOK TX18/2415Z TN05/2406Z
Forecast period: 1800 UTC 23 February 2020 to 0000 UTC 25 February 2020
Forecast type: FROM: standard forecast or significant change
Winds: from the SW (220 degrees) at 6 MPH (5 knots; 2.6 m/s)
Visibility: 6 or more miles 10+ km)
Ceiling: unknown
Clouds: missing
Weather: no significant weather forecast for this period

 AIRPORT MAP

 RUNWAY INFORMATION
Runway 05 Runway length 12795 ft Runway width 164 ft
Runway elevation 1411 ft Runway displaced threshold 1082 ft Runway heading 46
Runway 23 Runway length 12795 ft Runway width 164 ft
Runway elevation 1365 ft Runway displaced threshold 0 ft Runway heading 226
Runway 05L Runway length 2700 ft Runway width 98 ft
Runway elevation 1378 ft Runway displaced threshold 613 ft Runway heading 46
Runway 23R Runway length 2700 ft Runway width 98 ft
Runway elevation 1393 ft Runway displaced threshold 994 ft Runway heading 226

 AIRPORT FREQUENCIES
Type APP Name APP Frequency 120.3 MHZ
Type ARR Name ARR Frequency 136.25 MHZ
Type ATIS Name ATIS Frequency 135.575 MHZ
Type DEP Name DEP Frequency 119.525 MHZ
Type GND Name GND Frequency 121.675 MHZ
Type GTE Name APN Frequency 121.75 MHZ
Type TWR Name TWR Frequency 118.7 MHZ

 AIRPORT NEAR NAVIGATION AIDS
Type NDB Name Gland Frequency 375 KHZ
Type VOR-DME Name Geneva Cointrin Frequency 115750 KHZ
Type VOR-DME Name Passeiry Frequency 116600 KHZ



Powered by Virtual Airlines Manager [v2.6.2]